Scarborough, ME

9:30 AM EST on January 27, 2015 (GMT -0500)
Saco Bay | Change Station
CLOSE
Current Station
Personal Weather Station
Location: Saco, ME
Elevation: 16 ft
Nearby Weather Stations

Elev 16 ft 43.49 °N, 70.39 °W | Updated 13 minutes ago

Snow
Snow
11.5 °F
Feels Like 3 °F
N
5.3
Wind Variable Wind from NNW

Today
High -- | Low -- °F
--% Chance of Precip.
Yesterday
High -- | Low -- °F
Precip. -- in
7:03 AM 4:45 PM
First Quarter, 54% visible
Pressure 29.68 in
Visibility 0.2 miles
Clouds
Windchill 3 °F
Dew Point 6 °F
Humidity 79%
Rainfall 0.00 in
Snow Depth Not available.
UV Not available.
Pollen .10 out of 12
Air Quality Not available.
Flu Activity Not available.
METAR KPWM 271351Z 01021G33KT 1/4SM +SN BLSN VV005 M11/M14 A2968 RMK AO2 PK WND 01034/1329 SLP051 P0002 T11111139 $

More Conditions Fewer Conditions

Pressure 29.68 in
Visibility 0.2 miles
Clouds
Windchill 3 °F
Dew Point 6 °F
Humidity 79%
Rainfall 0.00 in
Snow Depth Not available.
UV Not available.
Pollen .10 out of 12
Air Quality Not available.
Flu Activity Not available.
METAR KPWM 271351Z 01021G33KT 1/4SM +SN BLSN VV005 M11/M14 A2968 RMK AO2 PK WND 01034/1329 SLP051 P0002 T11111139 $

More Conditions Fewer Conditions

10-Day Weather Forecast

Almanac

Astronomy

Jan. 27, 2015 Rise Set
Actual Time
Civil Twilight
Nautical Twilight
Astronomical Twilight
Moon
Length of Visible Light
Length of Day
Tomorrow will be .
, % of the Moon is Illuminated

Today's Extremes

State Highs State Lows

Community

WunderPhotos

Upload Photos

1,790,650 photos uploaded!

WunderBlogs® & News

Nearby

Air Quality

  Air Quality AQ Index Pollutant
Not available.

Snow Depth

Station Depth Elevation

Earthquake Activity

City Distance Mag. Time & Date
Minimum magnitude displayed is 2.5.

Coastal Water Temperatures

Place Temperature

Nearby Weather Stations